createdAt,value
2022-07-29T00:01:43.881Z,17.39
2022-07-29T00:04:10.392Z,17.49
2022-07-29T00:06:37.267Z,17.50
2022-07-29T00:09:03.611Z,17.51
2022-07-29T00:11:29.913Z,17.48
2022-07-29T00:13:56.227Z,17.53
2022-07-29T00:16:22.674Z,17.56
2022-07-29T00:18:49.049Z,17.49
2022-07-29T00:21:15.394Z,17.39
2022-07-29T00:23:41.688Z,17.36
2022-07-29T00:26:08.185Z,17.26
2022-07-29T00:28:34.531Z,17.08
2022-07-29T00:31:00.872Z,17.05
2022-07-29T00:33:27.250Z,17.00
2022-07-29T00:35:53.538Z,16.88
2022-07-29T00:38:21.489Z,16.96
2022-07-29T00:40:48.309Z,16.99
2022-07-29T00:43:15.019Z,16.90
2022-07-29T00:45:44.560Z,16.74
2022-07-29T00:48:11.415Z,16.72
2022-07-29T00:50:38.029Z,16.64
2022-07-29T00:53:05.052Z,16.57
2022-07-29T00:55:31.396Z,16.53
2022-07-29T00:57:59.021Z,16.53
2022-07-29T01:00:26.288Z,16.47
2022-07-29T01:02:52.688Z,16.50
2022-07-29T01:05:20.378Z,16.50
2022-07-29T01:07:47.406Z,16.41
2022-07-29T01:10:14.758Z,16.44
2022-07-29T01:12:41.550Z,16.39
2022-07-29T01:15:08.765Z,16.32
2022-07-29T01:17:41.948Z,16.30
2022-07-29T01:20:19.800Z,16.22
2022-07-29T01:22:46.088Z,16.23
2022-07-29T01:25:26.129Z,16.29
2022-07-29T01:28:00.413Z,16.24
2022-07-29T01:30:28.138Z,16.23
2022-07-29T01:32:57.187Z,16.19
2022-07-29T01:35:28.777Z,16.18
2022-07-29T01:38:10.356Z,16.13
2022-07-29T01:40:47.549Z,16.10
2022-07-29T01:43:16.071Z,16.09
2022-07-29T01:46:01.245Z,16.08
2022-07-29T01:48:46.483Z,16.04
2022-07-29T01:51:21.611Z,15.96
2022-07-29T01:53:53.974Z,15.92
2022-07-29T01:56:21.126Z,15.88
2022-07-29T01:58:48.210Z,15.89
2022-07-29T02:01:15.665Z,15.80
2022-07-29T02:03:43.849Z,15.77
2022-07-29T02:06:10.733Z,15.76
2022-07-29T02:08:37.958Z,15.72
2022-07-29T02:11:05.139Z,15.66
2022-07-29T02:13:32.470Z,15.49
2022-07-29T02:15:59.423Z,15.50
2022-07-29T02:18:28.202Z,15.54
2022-07-29T02:20:55.120Z,15.61
2022-07-29T02:23:23.465Z,15.59
2022-07-29T02:25:50.840Z,15.55
2022-07-29T02:28:19.801Z,15.55
2022-07-29T02:33:27.845Z,15.61
2022-07-29T02:35:55.747Z,15.59
2022-07-29T02:38:41.808Z,15.59
2022-07-29T02:41:16.249Z,15.61
2022-07-29T02:43:44.394Z,15.61
2022-07-29T02:46:29.246Z,15.64
2022-07-29T02:49:01.872Z,15.65
2022-07-29T02:51:47.827Z,15.73
2022-07-29T02:54:23.532Z,15.65
2022-07-29T02:56:50.508Z,15.64
2022-07-29T02:59:20.696Z,15.61
2022-07-29T03:01:47.202Z,15.51
2022-07-29T03:04:14.775Z,15.44
2022-07-29T03:06:41.947Z,15.45
2022-07-29T03:09:12.775Z,15.53
2022-07-29T03:11:49.113Z,15.41
2022-07-29T03:14:18.593Z,15.44
2022-07-29T03:16:45.690Z,15.35
2022-07-29T03:19:11.987Z,15.50
2022-07-29T03:21:38.294Z,15.48
2022-07-29T03:24:09.902Z,15.67
2022-07-29T03:26:36.997Z,15.62
2022-07-29T03:29:03.309Z,15.53
2022-07-29T03:31:29.762Z,15.46
2022-07-29T03:33:56.163Z,15.61
2022-07-29T03:36:22.711Z,15.60
2022-07-29T03:38:49.147Z,15.60
2022-07-29T03:41:15.738Z,15.61
2022-07-29T03:43:49.285Z,15.51
2022-07-29T03:46:17.493Z,15.58
2022-07-29T03:48:46.667Z,15.52
2022-07-29T03:51:13.218Z,15.56
2022-07-29T03:53:39.611Z,15.60
2022-07-29T03:56:07.375Z,15.55
2022-07-29T03:58:34.051Z,15.65
2022-07-29T04:01:00.562Z,15.68
2022-07-29T04:03:27.027Z,15.62
2022-07-29T04:06:00.575Z,15.69
2022-07-29T04:08:26.862Z,15.77
2022-07-29T04:10:54.836Z,15.70
2022-07-29T04:13:21.561Z,15.73
2022-07-29T04:15:47.972Z,15.77
2022-07-29T04:18:14.298Z,15.85
2022-07-29T04:20:40.617Z,15.95
2022-07-29T04:23:06.982Z,15.91
2022-07-29T04:25:33.295Z,15.92
2022-07-29T04:28:24.384Z,15.96
2022-07-29T04:31:15.360Z,15.91
2022-07-29T04:36:43.776Z,16.14
2022-07-29T04:39:11.331Z,16.16
2022-07-29T04:42:01.445Z,16.12
2022-07-29T04:44:43.133Z,16.24
2022-07-29T04:48:12.863Z,16.35
2022-07-29T04:50:21.025Z,16.17
2022-07-29T04:55:55.330Z,16.31
2022-07-29T04:58:39.221Z,16.47
2022-07-29T05:01:09.007Z,16.46
2022-07-29T05:04:06.378Z,16.52
2022-07-29T05:07:21.805Z,16.57
2022-07-29T05:09:50.513Z,16.73
2022-07-29T05:12:17.505Z,16.85
2022-07-29T05:15:17.792Z,16.94
2022-07-29T05:17:45.139Z,17.15
2022-07-29T05:23:05.039Z,17.45
2022-07-29T05:25:43.404Z,17.56
2022-07-29T05:28:12.333Z,17.74
2022-07-29T05:31:08.677Z,17.78
2022-07-29T05:33:37.167Z,18.17
2022-07-29T05:36:08.602Z,18.57
2022-07-29T05:38:35.655Z,19.01
2022-07-29T05:41:02.444Z,18.81
2022-07-29T05:43:37.378Z,18.76
2022-07-29T05:46:09.089Z,19.19
2022-07-29T05:48:35.709Z,19.24
2022-07-29T05:51:04.884Z,19.60
2022-07-29T05:53:31.753Z,19.66
2022-07-29T05:55:58.699Z,19.79
2022-07-29T05:58:27.934Z,19.94
2022-07-29T06:00:55.253Z,19.82
2022-07-29T06:03:22.037Z,19.70
2022-07-29T06:05:48.800Z,19.75
2022-07-29T06:08:18.274Z,19.97
2022-07-29T06:10:49.447Z,19.87
2022-07-29T06:13:17.021Z,19.54
2022-07-29T06:15:44.143Z,19.65
2022-07-29T06:18:11.647Z,19.63
2022-07-29T06:20:38.090Z,19.71
2022-07-29T06:23:05.459Z,20.06
2022-07-29T06:25:33.245Z,20.23
2022-07-29T06:27:59.630Z,20.24
2022-07-29T06:30:29.814Z,20.39
2022-07-29T06:32:56.170Z,20.47
2022-07-29T06:35:39.297Z,20.67
2022-07-29T06:38:30.315Z,20.73
2022-07-29T06:41:04.951Z,20.69
2022-07-29T06:43:34.574Z,20.74
2022-07-29T06:46:02.318Z,20.77
2022-07-29T06:48:31.913Z,20.69
2022-07-29T06:50:58.441Z,20.77
2022-07-29T06:53:24.826Z,20.94
2022-07-29T06:55:51.232Z,20.82
2022-07-29T06:58:19.140Z,21.03
2022-07-29T07:00:46.003Z,21.33
2022-07-29T07:03:12.590Z,21.25
2022-07-29T07:05:38.922Z,21.34
2022-07-29T07:08:06.019Z,21.13
2022-07-29T07:10:33.145Z,21.15
2022-07-29T07:13:00.090Z,21.39
2022-07-29T07:15:39.110Z,21.56
2022-07-29T07:18:06.961Z,21.83
2022-07-29T07:20:34.032Z,21.60
2022-07-29T07:23:00.379Z,21.65
2022-07-29T07:25:26.761Z,21.65
2022-07-29T07:27:53.107Z,21.60
2022-07-29T07:30:19.401Z,22.04
2022-07-29T07:32:47.158Z,22.29
2022-07-29T07:35:14.007Z,22.42
2022-07-29T07:37:41.527Z,22.35
2022-07-29T07:40:08.436Z,22.53
2022-07-29T07:42:34.858Z,22.65
2022-07-29T07:45:13.465Z,22.99
2022-07-29T07:48:02.717Z,22.85
2022-07-29T07:50:29.263Z,23.07
2022-07-29T07:53:28.233Z,22.88
2022-07-29T07:56:12.850Z,23.18
2022-07-29T07:58:40.091Z,22.88
2022-07-29T08:01:07.057Z,22.96
2022-07-29T08:03:41.086Z,23.06
2022-07-29T08:06:09.178Z,23.04
2022-07-29T08:08:44.221Z,23.01
2022-07-29T08:11:14.733Z,23.01
2022-07-29T08:13:41.726Z,23.22
2022-07-29T08:16:26.471Z,23.41
2022-07-29T08:18:57.671Z,23.67
2022-07-29T08:21:24.221Z,23.79
2022-07-29T08:24:17.622Z,23.96
2022-07-29T08:26:44.327Z,24.04
2022-07-29T08:29:10.835Z,24.09
2022-07-29T08:31:37.525Z,24.04
2022-07-29T08:34:04.875Z,24.15
2022-07-29T08:36:31.597Z,24.79
2022-07-29T08:38:58.324Z,24.34
2022-07-29T08:41:25.090Z,24.94
2022-07-29T08:43:52.125Z,24.85
2022-07-29T08:46:19.137Z,24.81
2022-07-29T08:48:45.837Z,25.05
2022-07-29T08:51:27.988Z,25.26
2022-07-29T08:53:55.779Z,24.81
2022-07-29T08:56:22.171Z,25.19
2022-07-29T08:58:52.405Z,25.22
2022-07-29T09:01:22.882Z,25.18
2022-07-29T09:04:03.410Z,25.41
2022-07-29T09:06:32.402Z,25.44
2022-07-29T09:08:59.452Z,25.84
2022-07-29T09:11:25.972Z,25.96
2022-07-29T09:13:52.256Z,26.02
2022-07-29T09:16:37.187Z,25.90
2022-07-29T09:19:19.836Z,26.07
2022-07-29T09:22:03.716Z,26.24
2022-07-29T09:24:42.269Z,26.01
2022-07-29T09:27:09.852Z,26.33
2022-07-29T09:29:36.540Z,26.34
2022-07-29T09:32:06.841Z,25.93
2022-07-29T09:34:33.272Z,26.07
2022-07-29T09:36:59.615Z,26.26
2022-07-29T09:39:30.694Z,25.84
2022-07-29T09:41:59.164Z,25.87
2022-07-29T09:44:25.683Z,25.78
2022-07-29T09:46:56.138Z,25.80
2022-07-29T09:49:22.795Z,25.60
2022-07-29T09:51:59.434Z,26.02
2022-07-29T09:54:29.436Z,26.71
2022-07-29T09:56:56.580Z,26.68
2022-07-29T09:59:27.321Z,26.79
2022-07-29T10:01:54.357Z,26.41
2022-07-29T10:04:20.970Z,26.39
2022-07-29T10:07:03.926Z,26.70
2022-07-29T10:09:31.144Z,26.76
2022-07-29T10:12:04.463Z,26.92
2022-07-29T10:14:31.821Z,26.47
2022-07-29T10:16:58.454Z,26.21
2022-07-29T10:19:25.433Z,25.65
2022-07-29T10:21:55.066Z,26.41
2022-07-29T10:24:25.740Z,26.71
2022-07-29T10:26:52.808Z,26.58
2022-07-29T10:29:19.189Z,26.92
2022-07-29T10:31:53.934Z,26.58
2022-07-29T10:34:29.279Z,26.57
2022-07-29T10:37:19.398Z,27.39
2022-07-29T10:40:25.792Z,27.84
2022-07-29T10:42:54.548Z,27.27
2022-07-29T10:45:21.877Z,27.51
2022-07-29T10:47:48.258Z,28.10
2022-07-29T10:50:17.268Z,27.92
2022-07-29T10:52:50.062Z,27.50
2022-07-29T10:55:37.608Z,27.77
2022-07-29T10:58:24.464Z,27.60
2022-07-29T11:00:52.207Z,27.93
2022-07-29T11:03:37.329Z,28.16
2022-07-29T11:06:08.566Z,28.11
2022-07-29T11:08:35.075Z,28.20
2022-07-29T11:11:19.882Z,28.51
2022-07-29T11:13:51.332Z,27.97
2022-07-29T11:16:20.184Z,27.92
2022-07-29T11:19:29.911Z,27.84
2022-07-29T11:21:58.513Z,28.00
2022-07-29T11:24:33.180Z,28.28
2022-07-29T11:27:08.474Z,28.27
2022-07-29T11:29:40.105Z,28.12
2022-07-29T11:32:10.558Z,28.64
2022-07-29T11:34:44.477Z,28.45
2022-07-29T11:37:11.415Z,28.61
2022-07-29T11:39:42.966Z,28.45
2022-07-29T11:42:28.493Z,28.61
2022-07-29T11:45:08.394Z,28.35
2022-07-29T11:47:49.223Z,28.48
2022-07-29T11:50:28.319Z,28.13
2022-07-29T11:52:54.827Z,28.27
2022-07-29T11:55:23.571Z,28.61
2022-07-29T11:58:03.917Z,28.75
2022-07-29T12:00:41.107Z,28.88
2022-07-29T12:03:09.073Z,28.75
2022-07-29T12:05:51.818Z,29.13
2022-07-29T12:08:22.903Z,29.36
2022-07-29T12:10:51.406Z,28.68
2022-07-29T12:13:19.989Z,28.79
2022-07-29T12:15:53.941Z,28.84
2022-07-29T12:18:24.308Z,28.42
2022-07-29T12:20:58.401Z,28.33
2022-07-29T12:23:24.746Z,28.53
2022-07-29T12:25:55.848Z,28.62
2022-07-29T12:28:27.606Z,28.24
2022-07-29T12:30:54.296Z,28.59
2022-07-29T12:33:22.440Z,28.03
2022-07-29T12:36:03.475Z,28.03
2022-07-29T12:38:33.241Z,28.07
2022-07-29T12:40:59.801Z,27.83
2022-07-29T12:43:26.312Z,27.65
2022-07-29T12:45:54.361Z,28.26
2022-07-29T12:48:35.758Z,28.50
2022-07-29T12:51:02.841Z,28.62
2022-07-29T12:53:29.804Z,28.54
2022-07-29T12:55:57.505Z,28.36
2022-07-29T12:58:42.512Z,28.06
2022-07-29T13:01:17.291Z,28.08
2022-07-29T13:03:59.850Z,27.71
2022-07-29T13:06:45.961Z,27.71
2022-07-29T13:09:17.845Z,27.89
2022-07-29T13:11:58.698Z,27.91
2022-07-29T13:14:35.038Z,27.62
2022-07-29T13:17:06.185Z,27.56
2022-07-29T13:19:41.860Z,27.55
2022-07-29T13:22:09.240Z,27.49
2022-07-29T13:24:46.458Z,27.70
2022-07-29T13:27:14.241Z,27.63
2022-07-29T13:29:41.488Z,27.75
2022-07-29T13:32:08.410Z,27.72
2022-07-29T13:34:34.806Z,27.83
2022-07-29T13:37:01.175Z,27.61
2022-07-29T13:39:27.504Z,27.54
2022-07-29T13:41:53.871Z,27.39
2022-07-29T13:44:22.256Z,27.77
2022-07-29T13:46:48.618Z,27.72
2022-07-29T13:49:14.963Z,27.40
2022-07-29T13:51:41.629Z,27.59
2022-07-29T13:54:07.936Z,27.61
2022-07-29T13:56:34.996Z,27.71
2022-07-29T13:59:01.333Z,27.92
2022-07-29T14:01:28.575Z,28.02
2022-07-29T14:03:55.000Z,27.85
2022-07-29T14:06:22.417Z,27.92
2022-07-29T14:08:48.834Z,27.78
2022-07-29T14:11:15.338Z,27.76
2022-07-29T14:13:41.654Z,27.58
2022-07-29T14:16:08.409Z,27.77
2022-07-29T14:18:34.756Z,27.51
2022-07-29T14:21:01.522Z,27.51
2022-07-29T14:23:27.902Z,27.56
2022-07-29T14:25:54.348Z,27.55
2022-07-29T14:28:20.728Z,27.62
2022-07-29T14:30:47.114Z,27.57
2022-07-29T14:33:13.742Z,27.56
2022-07-29T14:35:40.160Z,27.60
2022-07-29T14:38:06.625Z,27.40
2022-07-29T14:40:32.958Z,27.69
2022-07-29T14:42:59.329Z,27.72
2022-07-29T14:45:25.740Z,27.67
2022-07-29T14:47:57.476Z,27.52
2022-07-29T14:50:31.173Z,27.62
2022-07-29T14:52:58.633Z,27.64
2022-07-29T14:55:24.952Z,27.53
2022-07-29T14:57:51.325Z,27.52
2022-07-29T15:00:18.013Z,27.37
2022-07-29T15:03:01.053Z,27.39
2022-07-29T15:05:28.492Z,27.40
2022-07-29T15:07:54.926Z,27.60
2022-07-29T15:10:21.917Z,27.74
2022-07-29T15:12:51.207Z,27.85
2022-07-29T15:15:17.585Z,27.88
2022-07-29T15:17:43.938Z,27.95
2022-07-29T15:20:10.429Z,27.99
2022-07-29T15:22:38.039Z,27.81
2022-07-29T15:25:05.120Z,27.94
2022-07-29T15:27:31.787Z,27.79
2022-07-29T15:29:58.101Z,27.49
2022-07-29T15:32:24.515Z,27.54
2022-07-29T15:34:50.802Z,27.68
2022-07-29T15:37:17.135Z,27.50
2022-07-29T15:39:43.517Z,27.63
2022-07-29T15:42:09.844Z,27.52
2022-07-29T15:44:36.247Z,27.49
2022-07-29T15:47:08.311Z,27.61
2022-07-29T15:49:47.463Z,27.57
2022-07-29T15:52:16.568Z,27.37
2022-07-29T15:54:42.890Z,27.54
2022-07-29T15:57:09.781Z,27.59
2022-07-29T15:59:36.182Z,27.43
2022-07-29T16:02:02.702Z,27.18
2022-07-29T16:04:29.096Z,27.11
2022-07-29T16:06:55.766Z,27.10
2022-07-29T16:09:22.482Z,27.06
2022-07-29T16:11:50.955Z,27.09
2022-07-29T16:14:17.888Z,27.02
2022-07-29T16:16:44.591Z,26.83
2022-07-29T16:19:11.083Z,27.01
2022-07-29T16:21:37.789Z,26.93
2022-07-29T16:24:05.248Z,26.99
2022-07-29T16:26:31.865Z,26.99
2022-07-29T16:28:59.630Z,26.92
2022-07-29T16:31:26.292Z,27.14
2022-07-29T16:33:55.165Z,27.21
2022-07-29T16:36:22.152Z,27.16
2022-07-29T16:38:48.494Z,27.08
2022-07-29T16:41:14.816Z,27.07
2022-07-29T16:43:41.145Z,27.25
2022-07-29T16:46:08.660Z,27.36
2022-07-29T16:48:38.869Z,27.39
2022-07-29T16:51:07.092Z,27.46
2022-07-29T16:53:33.853Z,27.44
2022-07-29T16:56:00.221Z,27.23
2022-07-29T16:58:26.523Z,27.11
2022-07-29T17:00:53.143Z,27.07
2022-07-29T17:03:19.574Z,27.01
2022-07-29T17:05:45.945Z,26.94
2022-07-29T17:08:20.108Z,26.85
2022-07-29T17:10:46.586Z,26.62
2022-07-29T17:13:13.043Z,26.64
2022-07-29T17:15:39.353Z,26.66
2022-07-29T17:18:12.203Z,26.69
2022-07-29T17:20:39.411Z,26.72
2022-07-29T17:23:05.714Z,26.93
2022-07-29T17:25:32.129Z,27.00
2022-07-29T17:28:01.193Z,27.25
2022-07-29T17:30:27.788Z,27.27
2022-07-29T17:32:54.813Z,27.24
2022-07-29T17:35:39.911Z,27.18
2022-07-29T17:38:06.203Z,27.13
2022-07-29T17:40:32.524Z,26.76
2022-07-29T17:42:58.881Z,26.61
2022-07-29T17:45:25.255Z,26.70
2022-07-29T17:47:51.564Z,26.54
2022-07-29T17:50:17.963Z,26.46
2022-07-29T17:52:44.272Z,26.27
2022-07-29T17:55:10.977Z,26.17
2022-07-29T17:57:37.463Z,26.10
2022-07-29T18:00:04.664Z,26.00
2022-07-29T18:02:34.993Z,25.97
2022-07-29T18:05:01.372Z,25.88
2022-07-29T18:07:27.681Z,25.79
2022-07-29T18:09:58.630Z,25.76
2022-07-29T18:12:26.663Z,25.79
2022-07-29T18:14:53.005Z,25.69
2022-07-29T18:17:19.339Z,25.58
2022-07-29T18:19:45.690Z,25.45
2022-07-29T18:22:13.188Z,25.21
2022-07-29T18:24:39.542Z,25.24
2022-07-29T18:27:05.839Z,25.16
2022-07-29T18:29:32.251Z,25.08
2022-07-29T18:32:01.715Z,24.98
2022-07-29T18:34:28.864Z,24.86
2022-07-29T18:36:55.433Z,24.83
2022-07-29T18:39:22.018Z,24.77
2022-07-29T18:41:51.701Z,24.74
2022-07-29T18:44:19.069Z,24.83
2022-07-29T18:46:55.507Z,24.63
2022-07-29T18:49:22.386Z,24.68
2022-07-29T18:51:49.513Z,24.54
2022-07-29T18:54:17.479Z,24.55
2022-07-29T18:56:44.932Z,24.46
2022-07-29T18:59:11.513Z,24.38
2022-07-29T19:01:37.988Z,24.28
2022-07-29T19:04:04.953Z,24.28
2022-07-29T19:06:31.305Z,24.14
2022-07-29T19:08:57.827Z,24.05
2022-07-29T19:11:24.172Z,23.95
2022-07-29T19:13:50.575Z,23.95
2022-07-29T19:16:16.974Z,23.97
2022-07-29T19:18:44.598Z,23.78
2022-07-29T19:21:11.150Z,23.89
2022-07-29T19:24:00.058Z,23.89
2022-07-29T19:26:23.965Z,23.75
2022-07-29T19:28:52.814Z,23.81
2022-07-29T19:31:19.181Z,23.79
2022-07-29T19:33:45.527Z,23.72
2022-07-29T19:36:11.847Z,23.69
2022-07-29T19:38:39.513Z,23.52
2022-07-29T19:41:06.353Z,23.71
2022-07-29T19:43:49.984Z,23.49
2022-07-29T19:46:18.722Z,23.49
2022-07-29T19:48:45.308Z,23.49
2022-07-29T19:51:11.757Z,23.42
2022-07-29T19:53:38.111Z,23.30
2022-07-29T19:56:04.667Z,23.12
2022-07-29T19:58:31.079Z,23.17
2022-07-29T20:00:58.924Z,22.95
2022-07-29T20:03:25.364Z,23.06
2022-07-29T20:05:52.781Z,22.93
2022-07-29T20:08:19.232Z,22.84
2022-07-29T20:10:45.661Z,22.86
2022-07-29T20:13:12.101Z,22.85
2022-07-29T20:15:38.496Z,22.78
2022-07-29T20:18:05.009Z,22.83
2022-07-29T20:20:31.417Z,22.74
2022-07-29T20:22:58.587Z,22.74
2022-07-29T20:25:25.024Z,22.70
2022-07-29T20:27:52.441Z,22.57
2022-07-29T20:30:19.445Z,22.52
2022-07-29T20:32:47.585Z,22.51
2022-07-29T20:35:14.005Z,22.48
2022-07-29T20:37:51.407Z,22.43
2022-07-29T20:40:22.144Z,22.31
2022-07-29T20:42:48.787Z,22.36
2022-07-29T20:45:15.177Z,22.32
2022-07-29T20:47:41.749Z,22.35
2022-07-29T20:50:09.875Z,22.14
2022-07-29T20:52:36.175Z,22.31
2022-07-29T20:55:02.550Z,22.27
2022-07-29T20:57:39.265Z,22.08
2022-07-29T21:00:06.767Z,22.13
2022-07-29T21:02:33.470Z,22.04
2022-07-29T21:04:59.820Z,22.03
2022-07-29T21:07:26.133Z,21.93
2022-07-29T21:09:52.469Z,21.93
2022-07-29T21:12:18.988Z,21.82
2022-07-29T21:14:48.435Z,21.87
2022-07-29T21:17:15.744Z,21.92
2022-07-29T21:19:42.761Z,21.99
2022-07-29T21:22:09.126Z,22.07
2022-07-29T21:24:35.449Z,21.97
2022-07-29T21:27:21.740Z,21.87
2022-07-29T21:29:48.404Z,21.89
2022-07-29T21:32:14.841Z,21.93
2022-07-29T21:34:55.934Z,21.90
2022-07-29T21:37:22.314Z,21.90
2022-07-29T21:39:48.611Z,21.74
2022-07-29T21:42:15.074Z,21.75
2022-07-29T21:44:41.936Z,21.75
2022-07-29T21:47:09.603Z,21.63
2022-07-29T21:49:35.965Z,21.70
2022-07-29T21:52:03.928Z,21.60
2022-07-29T21:54:30.354Z,21.57
2022-07-29T21:56:56.715Z,21.59
2022-07-29T21:59:24.394Z,21.49
2022-07-29T22:01:50.731Z,21.59
2022-07-29T22:04:17.188Z,21.60
2022-07-29T22:06:43.547Z,21.47
2022-07-29T22:09:10.168Z,21.56
2022-07-29T22:11:36.771Z,21.54
2022-07-29T22:14:03.940Z,21.38
2022-07-29T22:16:30.346Z,21.38
2022-07-29T22:18:56.761Z,21.33
2022-07-29T22:21:23.106Z,21.40
2022-07-29T22:23:49.412Z,21.31
2022-07-29T22:26:15.769Z,21.28
2022-07-29T22:28:42.077Z,21.24
2022-07-29T22:31:08.474Z,21.27
2022-07-29T22:33:34.807Z,21.29
2022-07-29T22:36:01.093Z,21.21
2022-07-29T22:38:27.408Z,21.14
2022-07-29T22:40:53.740Z,21.11
2022-07-29T22:43:26.940Z,21.03
2022-07-29T22:45:53.279Z,21.02
2022-07-29T22:48:19.676Z,21.01
2022-07-29T22:50:46.231Z,20.93
2022-07-29T22:53:12.545Z,20.89
2022-07-29T22:55:38.944Z,20.79
2022-07-29T22:58:05.265Z,20.79
2022-07-29T23:00:31.604Z,20.73
2022-07-29T23:02:57.932Z,20.68
2022-07-29T23:05:24.259Z,20.76
2022-07-29T23:07:50.555Z,20.69
2022-07-29T23:10:16.868Z,20.69
2022-07-29T23:12:43.181Z,20.73
2022-07-29T23:15:09.478Z,20.73
2022-07-29T23:17:36.276Z,20.74
2022-07-29T23:20:03.624Z,20.76
2022-07-29T23:22:29.919Z,20.74
2022-07-29T23:24:56.211Z,20.64
2022-07-29T23:27:22.514Z,20.52
2022-07-29T23:29:48.808Z,20.63
2022-07-29T23:32:15.111Z,20.68
2022-07-29T23:34:41.430Z,20.68
2022-07-29T23:37:07.835Z,20.56
2022-07-29T23:39:34.124Z,20.47
2022-07-29T23:42:00.509Z,20.43
2022-07-29T23:44:26.808Z,20.51
2022-07-29T23:46:53.125Z,20.53
2022-07-29T23:49:19.536Z,20.50
2022-07-29T23:51:45.916Z,20.47
2022-07-29T23:54:12.192Z,20.57
2022-07-29T23:56:38.554Z,20.58
2022-07-29T23:59:06.011Z,20.44
